tastybitch.net alexa rank chart, tastybitch.net alexa rank daily changes

tastybitch.net alexa rank chart, tastybitch.net alexa rank daily changes

tastybitch.net
Actual rank:
416 997

RANK HISTORY

Date Rank Diff
2017/08/13 416 997 +10 577
2017/08/12 406 420 +426
2017/08/11 405 994 +1 410
2017/08/10 404 584 +19 490
2017/08/09 385 094 +4 474
2017/08/08 380 620 -14 647
2017/08/07 395 267 +4 311
2017/08/06 390 956 -4 250
2017/08/05 395 206 -18 018
2017/08/04 413 224 +27 378
2017/08/03 385 846 -6 750
2017/08/02 392 596 -10 197
2017/08/01 402 793 -3 488
2017/07/31 406 281 +9 111
2017/07/30 397 170 +23 995
2017/07/29 373 175 +2 378
2017/07/28 370 797 +1 614
2017/07/27 369 183 +1 523
2017/07/26 367 660 +5 457
2017/07/25 362 203 +273
2017/07/24 361 930 +9 191
2017/07/23 352 739 +3 017
2017/07/22 349 722 +7 486
2017/07/21 342 236 +5 129
2017/07/20 337 107 -6 712
2017/07/19 343 819 +7 853
2017/07/18 335 966 +9 761
2017/07/17 326 205 +6 298
2017/07/16 319 907 -7 451
2017/07/15 327 358 +6 627
2017/07/14 320 731 +372
2017/07/13 320 359 -12 655
2017/07/12 333 014 +11 055
2017/07/11 321 959 +629
2017/07/10 321 330 -11 887
2017/07/09 333 217 -2 629
2017/07/08 335 846 -7 102
2017/07/07 342 948 -892
2017/07/06 343 840 -1 727
2017/07/05 345 567 +5 477
2017/07/04 340 090 -13 541
2017/07/03 353 631 -8 422
2017/07/02 362 053 +824
2017/07/01 361 229 -2 752
2017/06/30 363 981 -10 316
2017/06/29 374 297 -11 194
2017/06/28 385 491 +5 952
2017/06/27 379 539 +3 417
2017/06/26 376 122 +5 525
2017/06/25 370 597 +5 579
2017/06/24 365 018 -6 511
2017/06/23 371 529 -2 478
2017/06/22 374 007 +22 287
2017/06/21 351 720 -4 800
2017/06/20 356 520 +13 248
2017/06/19 343 272 +4 955
2017/06/18 338 317 -11 177
2017/06/17 349 494 -11 168
2017/06/16 360 662 +7 547
2017/06/15 353 115 -920
2017/06/14 354 035

WIDGET FOR YOUR SITE

DOMAINS WITH THE NEAREST RANK

Domain Rank
pttep.com 416 992
askme.co.il 416 993
2abi.com 416 994
se-zone.ru 416 995
moneytreeinc.com 416 996
tastybitch.net 416 997
wareseeker.com 416 998
yournorthland.com 416 999
topstar.tj 417 000
healthabc.net 417 001
amway.eu 417 002

DOMAINS WITH THE NEAREST RANK BY TLD .net

Domain Rank
be-young.net 416 864
19damoa.net 416 868
ajisaba.net 416 875
cartests.net 416 892
sudaninet.net 416 944
tastybitch.net 416 997
healthabc.net 417 001
airtv.net 417 004
weihnachtskarten-druckerei.net 417 023
sonokinetic.net 417 028
hkia.net 417 041